Archival Weather

South Haven Area Rgnl

South Haven, Michigan (KLWA)

Report from: Saturday, September 30, 2023 3:35 PM EDT
Current time: Tuesday, February 27, 2024 5:30 AM EST

Current weather – Weather history – Daily summaries
Weather forecast

Temperature24.0°C (75.2°F)
Dew point17.5°C (63.5°F)
Winds 7 kts (3.6 m/s, 8.1 mph) Northwest (310°)
Visibility10 mi. (16.1 km)
Clouds Sky clear
Altimeter30.25 in.Hg (1024 mB)
Relative humidity67 %
Density altitude945 ft. (288 m)
Remarks Fully automated report
Automated weather observing station with precipitation discriminator
Flight conditions Visual Meteorological Conditions
Raw dataKLWA 301935Z AUTO 31007KT 10SM CLR 24/18 A3025 RMK AO2 T02400175
An error has occurred. This application may no longer respond until reloaded. Reload 🗙